Fort Dodge, IA

8:26 AM CDT on September 23, 2014 (GMT -0500)
Duncombe School area | Change Station
CLOSE
Current Station
Personal Weather Station
Location: Fort Dodge, IA
Elevation: 1109 ft
Nearby Weather Stations

Elev 1109 ft 42.51 °N, 94.18 °W | Updated 0 second ago

Clear
Clear
55.6 °F
Feels Like 55.6 °F
N
0.0
Wind Variable Wind from East
Gusts 1.0 mph

Today
High -- | Low -- °F
--% Chance of Precip.
Yesterday
High -- | Low -- °F
Precip. -- in
7:05 AM 7:12 PM
Waning Crescent, 0% visible
Pressure 30.25 in
Visibility 10.0 miles
Clouds Clear
Dew Point 52 °F
Humidity 87%
Rainfall 0.00 in
Snow Depth Not available.
UV 1 out of 12
Pollen 4.90 out of 12
Air Quality Not available.
Flu Activity Not available.
METAR KFOD 231315Z AUTO 17004KT 10SM CLR 13/09 A3025 RMK AO1

More Conditions Fewer Conditions

Pressure 30.25 in
Visibility 10.0 miles
Clouds Clear
Dew Point 52 °F
Humidity 87%
Rainfall 0.00 in
Snow Depth Not available.
UV 1 out of 12
Pollen 4.90 out of 12
Air Quality Not available.
Flu Activity Not available.
METAR KFOD 231315Z AUTO 17004KT 10SM CLR 13/09 A3025 RMK AO1

More Conditions Fewer Conditions

10-Day Weather Forecast

Almanac

Astronomy

Sep. 23, 2014 Rise Set
Actual Time 7:05 AM CDT 7:12 PM CDT
Civil Twilight 6:37 AM CDT 7:40 PM CDT
Nautical Twilight 6:04 AM CDT 8:13 PM CDT
Astronomical Twilight 5:30 AM CDT 8:46 PM CDT
Moon 6:29 AM CDT 6:51 PM CDT
Length of Visible Light 13h 03m
Length of Day
12h 07m
Tomorrow will be 2m 52s shorter.
Waning Crescent, 0% of the Moon is Illuminated
Today
Waning Crescent
Sep 24
New
Oct 1
First Quarter
Oct 8
Full
Oct 15
Last Quarter

Today's Extremes

State Highs State Lows

Community

WunderPhotos

Upload Photos

1,755,669 photos uploaded!

WunderBlogs® & News

Nearby

Snow Depth

Station Depth Elevation
No new snow has been reported.

Earthquake Activity

City Distance Mag. Time & Date
No recent earthquake activity has been reported nearby.
Minimum magnitude displayed is 2.5.

Coastal Water Temperatures

Place Temperature
No Stations Reporting

Nearby Weather Stations